createdAt,value
2019-04-07T00:02:25.587Z,10.60
2019-04-07T00:04:55.799Z,10.50
2019-04-07T00:07:26.329Z,10.60
2019-04-07T00:09:56.864Z,10.60
2019-04-07T00:12:27.687Z,10.60
2019-04-07T00:14:57.865Z,10.60
2019-04-07T00:17:27.841Z,10.60
2019-04-07T00:19:57.813Z,10.60
2019-04-07T00:22:28.021Z,10.60
2019-04-07T00:24:58.358Z,10.60
2019-04-07T00:27:28.355Z,10.60
2019-04-07T00:29:58.293Z,10.60
2019-04-07T00:32:28.434Z,10.60
2019-04-07T00:34:58.614Z,10.60
2019-04-07T00:37:29.489Z,10.60
2019-04-07T00:39:59.849Z,10.60
2019-04-07T00:42:30.021Z,10.70
2019-04-07T00:44:59.881Z,10.60
2019-04-07T00:47:29.761Z,10.60
2019-04-07T00:49:59.841Z,10.70
2019-04-07T00:52:29.703Z,10.60
2019-04-07T00:54:59.640Z,10.70
2019-04-07T00:57:30.268Z,10.60
2019-04-07T01:00:00.571Z,10.60
2019-04-07T01:02:32.226Z,10.70
2019-04-07T01:05:02.648Z,10.60
2019-04-07T01:07:32.661Z,10.60
2019-04-07T01:10:02.848Z,10.60
2019-04-07T01:12:33.849Z,10.50
2019-04-07T01:15:04.323Z,10.50
2019-04-07T01:17:34.689Z,10.40
2019-04-07T01:20:06.275Z,10.30
2019-04-07T01:22:36.381Z,10.20
2019-04-07T01:25:08.839Z,10.10
2019-04-07T01:27:39.256Z,10.00
2019-04-07T01:30:09.684Z,9.90
2019-04-07T01:32:39.588Z,9.80
2019-04-07T01:35:10.085Z,9.70
2019-04-07T01:41:43.877Z,9.70
2019-04-07T01:44:33.404Z,9.50
2019-04-07T01:47:21.732Z,9.50
2019-04-07T01:49:59.763Z,9.40
2019-04-07T01:52:52.656Z,9.30
2019-04-07T01:55:43.969Z,9.20
2019-04-07T01:58:35.518Z,9.10
2019-04-07T02:01:24.690Z,9.00
2019-04-07T02:04:11.753Z,9.00
2019-04-07T02:07:28.530Z,9.00
2019-04-07T02:10:14.990Z,8.90
2019-04-07T02:13:08.559Z,8.90
2019-04-07T02:16:14.368Z,8.80
2019-04-07T02:19:01.101Z,8.70
2019-04-07T02:21:53.591Z,8.70
2019-04-07T02:24:35.657Z,8.70
2019-04-07T02:27:30.678Z,8.60
2019-04-07T02:30:18.177Z,8.60
2019-04-07T02:33:16.679Z,8.50
2019-04-07T02:36:15.657Z,8.50
2019-04-07T02:38:49.978Z,8.60
2019-04-07T02:41:30.564Z,8.60
2019-04-07T02:44:18.951Z,8.50
2019-04-07T02:47:24.326Z,8.40
2019-04-07T02:50:16.288Z,8.40
2019-04-07T02:53:11.206Z,8.40
2019-04-07T02:56:03.478Z,8.40
2019-04-07T02:58:47.748Z,8.40
2019-04-07T03:01:43.404Z,8.40
2019-04-07T03:04:31.270Z,8.40
2019-04-07T03:07:17.607Z,8.40
2019-04-07T03:10:13.039Z,8.40
2019-04-07T03:13:06.048Z,8.40
2019-04-07T03:15:54.585Z,8.40
2019-04-07T03:18:44.384Z,8.40
2019-04-07T03:21:29.638Z,8.30
2019-04-07T03:24:21.314Z,8.20
2019-04-07T03:27:08.935Z,8.10
2019-04-07T03:29:52.095Z,8.10
2019-04-07T03:32:48.043Z,8.00
2019-04-07T03:35:35.293Z,8.00
2019-04-07T03:38:28.022Z,8.00
2019-04-07T03:41:23.845Z,7.90
2019-04-07T03:44:03.344Z,8.00
2019-04-07T03:46:55.323Z,8.00
2019-04-07T03:49:31.645Z,8.00
2019-04-07T03:52:21.275Z,7.90
2019-04-07T03:55:25.911Z,8.00
2019-04-07T03:58:14.779Z,8.00
2019-04-07T04:01:28.475Z,8.00
2019-04-07T04:04:10.613Z,8.10
2019-04-07T04:07:26.643Z,8.10
2019-04-07T04:10:10.884Z,8.10
2019-04-07T04:12:50.260Z,8.10
2019-04-07T04:15:40.245Z,8.20
2019-04-07T04:18:10.256Z,8.20
2019-04-07T04:20:40.879Z,8.20
2019-04-07T04:23:12.575Z,8.10
2019-04-07T04:25:42.896Z,8.10
2019-04-07T04:28:14.266Z,8.00
2019-04-07T04:30:44.365Z,7.90
2019-04-07T04:33:14.366Z,7.90
2019-04-07T04:35:44.296Z,7.80
2019-04-07T04:38:14.164Z,7.80
2019-04-07T04:40:44.171Z,7.80
2019-04-07T04:43:14.103Z,7.70
2019-04-07T04:45:44.889Z,7.70
2019-04-07T04:48:15.504Z,7.60
2019-04-07T04:50:45.896Z,7.50
2019-04-07T04:53:15.766Z,7.50
2019-04-07T04:55:45.947Z,7.50
2019-04-07T04:58:15.750Z,7.50
2019-04-07T05:00:45.748Z,7.40
2019-04-07T05:03:15.994Z,7.40
2019-04-07T05:05:46.923Z,7.40
2019-04-07T05:08:17.546Z,7.40
2019-04-07T05:10:48.272Z,7.30
2019-04-07T05:13:19.025Z,7.30
2019-04-07T05:15:50.193Z,7.30
2019-04-07T05:18:21.078Z,7.30
2019-04-07T05:20:54.254Z,7.30
2019-04-07T05:23:25.114Z,7.20
2019-04-07T05:25:55.718Z,7.20
2019-04-07T05:28:26.595Z,7.30
2019-04-07T05:30:56.931Z,7.30
2019-04-07T05:33:27.770Z,7.30
2019-04-07T05:35:58.315Z,7.30
2019-04-07T05:38:29.048Z,7.40
2019-04-07T05:40:59.555Z,7.40
2019-04-07T05:43:30.495Z,7.40
2019-04-07T05:46:00.827Z,7.40
2019-04-07T05:48:31.682Z,7.50
2019-04-07T05:51:02.300Z,7.50
2019-04-07T05:53:32.391Z,7.60
2019-04-07T05:56:02.350Z,7.60
2019-04-07T05:58:32.299Z,7.70
2019-04-07T06:01:02.824Z,7.80
2019-04-07T06:03:32.984Z,7.80
2019-04-07T06:06:03.105Z,7.90
2019-04-07T06:12:09.727Z,8.00
2019-04-07T06:14:39.149Z,8.10
2019-04-07T06:17:09.782Z,8.10
2019-04-07T06:19:41.259Z,8.20
2019-04-07T06:22:11.349Z,8.30
2019-04-07T06:24:41.157Z,8.40
2019-04-07T06:27:13.510Z,8.50
2019-04-07T06:29:42.714Z,8.50
2019-04-07T06:32:13.477Z,8.60
2019-04-07T06:34:44.430Z,8.70
2019-04-07T06:37:14.598Z,8.80
2019-04-07T06:43:25.813Z,9.00
2019-04-07T06:46:08.239Z,9.10
2019-04-07T06:48:57.317Z,9.20
2019-04-07T06:51:44.629Z,9.30
2019-04-07T06:54:32.204Z,9.40
2019-04-07T06:57:30.804Z,9.40
2019-04-07T07:00:26.923Z,9.50
2019-04-07T07:03:11.618Z,9.60
2019-04-07T07:06:01.116Z,9.60
2019-04-07T07:09:03.145Z,9.70
2019-04-07T07:11:59.531Z,9.90
2019-04-07T07:14:50.792Z,10.00
2019-04-07T07:17:29.329Z,10.20
2019-04-07T07:20:27.569Z,10.30
2019-04-07T07:27:12.521Z,10.60
2019-04-07T07:29:45.336Z,10.70
2019-04-07T07:32:14.733Z,10.70
2019-04-07T07:34:45.042Z,10.80
2019-04-07T07:37:25.282Z,10.90
2019-04-07T07:43:29.379Z,11.20
2019-04-07T07:46:00.163Z,11.50
2019-04-07T07:48:31.376Z,11.60
2019-04-07T07:51:02.337Z,11.70
2019-04-07T07:53:32.946Z,11.80
2019-04-07T07:56:03.233Z,11.90
2019-04-07T07:58:34.509Z,12.10
2019-04-07T08:01:05.338Z,12.20
2019-04-07T08:03:36.076Z,12.40
2019-04-07T08:06:08.336Z,12.40
2019-04-07T08:08:38.049Z,12.60
2019-04-07T08:11:07.942Z,12.80
2019-04-07T08:13:43.290Z,13.00
2019-04-07T08:16:09.785Z,13.10
2019-04-07T08:18:43.582Z,13.30
2019-04-07T08:21:12.471Z,13.50
2019-04-07T08:23:45.134Z,13.60
2019-04-07T08:26:14.734Z,13.80
2019-04-07T08:28:45.070Z,14.20
2019-04-07T08:31:17.801Z,14.30
2019-04-07T08:33:50.085Z,14.40
2019-04-07T08:36:19.411Z,14.60
2019-04-07T08:38:52.583Z,14.70
2019-04-07T08:41:22.281Z,14.90
2019-04-07T08:43:55.436Z,15.00
2019-04-07T08:46:26.482Z,15.10
2019-04-07T08:49:01.797Z,15.20
2019-04-07T08:51:32.881Z,15.30
2019-04-07T08:57:45.737Z,15.50
2019-04-07T09:00:23.949Z,15.70
2019-04-07T09:03:01.678Z,15.90
2019-04-07T09:05:29.044Z,16.10
2019-04-07T09:07:57.454Z,16.10
2019-04-07T09:10:43.042Z,16.30
2019-04-07T09:13:13.128Z,16.40
2019-04-07T09:15:52.189Z,16.60
2019-04-07T09:18:28.411Z,16.60
2019-04-07T09:21:40.336Z,16.60
2019-04-07T09:24:31.360Z,16.70
2019-04-07T09:27:23.576Z,16.90
2019-04-07T09:30:12.801Z,17.10
2019-04-07T09:33:08.172Z,17.10
2019-04-07T09:35:58.863Z,17.30
2019-04-07T09:38:46.975Z,17.60
2019-04-07T09:41:29.730Z,17.90
2019-04-07T09:44:19.739Z,17.90
2019-04-07T09:47:08.730Z,18.10
2019-04-07T09:50:00.536Z,18.30
2019-04-07T09:52:49.352Z,18.50
2019-04-07T09:55:36.789Z,18.60
2019-04-07T09:58:35.053Z,18.80
2019-04-07T10:01:21.066Z,19.00
2019-04-07T10:04:11.990Z,19.10
2019-04-07T10:07:00.587Z,19.20
2019-04-07T10:10:10.844Z,19.40
2019-04-07T10:12:46.777Z,19.50
2019-04-07T10:15:34.176Z,19.60
2019-04-07T10:18:13.314Z,19.80
2019-04-07T10:20:54.269Z,19.90
2019-04-07T10:27:51.948Z,20.10
2019-04-07T10:30:33.682Z,20.10
2019-04-07T10:33:31.646Z,20.30
2019-04-07T10:36:20.556Z,20.30
2019-04-07T10:39:01.940Z,20.50
2019-04-07T10:41:54.271Z,20.70
2019-04-07T10:44:34.046Z,20.90
2019-04-07T10:47:18.387Z,20.90
2019-04-07T10:50:02.707Z,21.10
2019-04-07T10:52:39.813Z,21.20
2019-04-07T10:55:31.554Z,21.10
2019-04-07T10:58:20.850Z,21.10
2019-04-07T11:01:11.766Z,21.20
2019-04-07T11:04:00.678Z,21.40
2019-04-07T11:06:50.173Z,21.50
2019-04-07T11:09:50.920Z,21.70
2019-04-07T11:12:39.843Z,21.80
2019-04-07T11:15:35.134Z,21.90
2019-04-07T11:18:20.730Z,21.90
2019-04-07T11:21:06.891Z,21.70
2019-04-07T11:23:54.493Z,21.60
2019-04-07T11:26:36.457Z,21.40
2019-04-07T11:29:16.592Z,21.70
2019-04-07T11:32:08.698Z,21.80
2019-04-07T11:34:46.671Z,21.80
2019-04-07T11:37:27.512Z,21.70
2019-04-07T11:40:04.671Z,22.00
2019-04-07T11:43:08.843Z,22.10
2019-04-07T11:46:03.043Z,22.10
2019-04-07T11:48:53.129Z,22.00
2019-04-07T11:51:37.933Z,22.30
2019-04-07T11:54:26.715Z,22.40
2019-04-07T11:57:21.515Z,22.40
2019-04-07T12:00:09.682Z,22.10
2019-04-07T12:03:12.620Z,22.20
2019-04-07T12:05:59.928Z,22.40
2019-04-07T12:08:47.871Z,22.40
2019-04-07T12:11:40.817Z,22.40
2019-04-07T12:14:38.575Z,22.90
2019-04-07T12:17:16.683Z,22.70
2019-04-07T12:19:58.176Z,22.50
2019-04-07T12:22:44.739Z,22.40
2019-04-07T12:25:37.312Z,22.30
2019-04-07T12:28:25.742Z,22.40
2019-04-07T12:31:13.874Z,22.30
2019-04-07T12:34:01.469Z,22.30
2019-04-07T12:36:43.012Z,22.50
2019-04-07T12:39:34.130Z,22.90
2019-04-07T12:42:20.798Z,22.70
2019-04-07T12:45:11.171Z,22.90
2019-04-07T12:48:09.254Z,23.10
2019-04-07T12:51:00.991Z,23.30
2019-04-07T12:53:44.329Z,23.10
2019-04-07T12:56:39.518Z,22.90
2019-04-07T12:59:37.621Z,22.60
2019-04-07T13:02:39.195Z,22.50
2019-04-07T13:05:34.498Z,22.40
2019-04-07T13:08:28.532Z,22.50
2019-04-07T13:11:25.394Z,22.80
2019-04-07T13:14:10.026Z,22.50
2019-04-07T13:17:17.128Z,22.60
2019-04-07T13:20:02.181Z,23.00
2019-04-07T13:22:45.567Z,23.50
2019-04-07T13:29:05.319Z,24.10
2019-04-07T13:31:52.881Z,24.20
2019-04-07T13:34:31.142Z,23.80
2019-04-07T13:37:17.402Z,23.50
2019-04-07T13:40:15.780Z,23.50
2019-04-07T13:43:07.883Z,23.90
2019-04-07T13:45:53.734Z,23.90
2019-04-07T13:48:49.534Z,24.00
2019-04-07T13:51:34.612Z,23.90
2019-04-07T13:54:25.359Z,23.10
2019-04-07T13:57:26.010Z,22.50
2019-04-07T14:00:13.425Z,22.40
2019-04-07T14:03:06.924Z,22.10
2019-04-07T14:06:14.939Z,21.60
2019-04-07T14:09:04.166Z,21.40
2019-04-07T14:12:07.556Z,21.30
2019-04-07T14:14:55.963Z,21.30
2019-04-07T14:17:45.081Z,21.80
2019-04-07T14:20:32.878Z,22.60
2019-04-07T14:30:11.508Z,23.20
2019-04-07T14:32:58.529Z,23.50
2019-04-07T14:35:39.041Z,23.40
2019-04-07T14:38:22.316Z,23.30
2019-04-07T14:41:09.675Z,23.20
2019-04-07T14:44:10.743Z,23.10
2019-04-07T14:46:55.524Z,23.20
2019-04-07T14:49:50.323Z,23.30
2019-04-07T14:52:41.196Z,23.20
2019-04-07T14:55:31.511Z,22.70
2019-04-07T14:58:19.249Z,22.10
2019-04-07T15:01:26.609Z,21.70
2019-04-07T15:03:56.623Z,21.40
2019-04-07T15:06:31.136Z,21.20
2019-04-07T15:09:18.815Z,21.40
2019-04-07T15:12:14.273Z,21.70
2019-04-07T15:14:34.075Z,22.10
2019-04-07T15:17:04.718Z,22.40
2019-04-07T15:19:35.170Z,22.50
2019-04-07T15:22:06.524Z,22.30
2019-04-07T15:24:37.631Z,22.50
2019-04-07T15:27:08.360Z,22.40
2019-04-07T15:29:40.779Z,22.20
2019-04-07T15:32:10.550Z,22.30
2019-04-07T15:34:42.544Z,22.00
2019-04-07T15:37:12.131Z,21.60
2019-04-07T15:39:42.709Z,21.20
2019-04-07T15:42:15.328Z,21.00
2019-04-07T15:44:45.028Z,20.90
2019-04-07T15:47:15.161Z,20.70
2019-04-07T15:49:45.435Z,20.70
2019-04-07T15:52:15.368Z,20.60
2019-04-07T15:54:45.235Z,20.70
2019-04-07T15:57:15.115Z,21.00
2019-04-07T15:59:45.092Z,21.30
2019-04-07T16:02:16.116Z,21.30
2019-04-07T16:04:46.212Z,21.30
2019-04-07T16:07:18.399Z,21.50
2019-04-07T16:09:52.831Z,21.50
2019-04-07T16:12:19.717Z,21.40
2019-04-07T16:14:50.413Z,21.40
2019-04-07T16:17:21.108Z,21.30
2019-04-07T16:19:54.066Z,21.30
2019-04-07T16:22:22.642Z,21.10
2019-04-07T16:24:55.031Z,21.10
2019-04-07T16:27:24.007Z,21.00
2019-04-07T16:29:53.785Z,21.00
2019-04-07T16:32:24.175Z,21.00
2019-04-07T16:34:54.037Z,21.00
2019-04-07T16:37:24.985Z,20.90
2019-04-07T16:39:54.961Z,20.80
2019-04-07T16:42:25.434Z,20.80
2019-04-07T16:44:55.313Z,20.80
2019-04-07T16:47:29.084Z,20.70
2019-04-07T16:49:56.879Z,20.60
2019-04-07T16:52:31.127Z,20.50
2019-04-07T16:58:35.310Z,20.50
2019-04-07T17:01:02.563Z,20.40
2019-04-07T17:03:32.418Z,20.30
2019-04-07T17:06:02.972Z,20.20
2019-04-07T17:08:33.874Z,20.10
2019-04-07T17:11:07.700Z,20.10
2019-04-07T17:13:41.224Z,19.90
2019-04-07T17:16:10.147Z,19.90
2019-04-07T17:18:43.058Z,19.80
2019-04-07T17:21:15.798Z,19.70
2019-04-07T17:23:46.147Z,19.60
2019-04-07T17:26:16.024Z,19.50
2019-04-07T17:28:48.117Z,19.40
2019-04-07T17:31:17.586Z,19.30
2019-04-07T17:33:48.791Z,19.20
2019-04-07T17:36:22.255Z,19.10
2019-04-07T17:39:09.868Z,19.00
2019-04-07T17:41:39.776Z,18.90
2019-04-07T17:44:22.376Z,18.80
2019-04-07T17:47:20.132Z,18.60
2019-04-07T17:50:05.105Z,18.50
2019-04-07T17:52:54.002Z,18.40
2019-04-07T17:55:42.968Z,18.30
2019-04-07T17:58:22.203Z,18.10
2019-04-07T18:01:13.946Z,18.00
2019-04-07T18:04:18.812Z,17.90
2019-04-07T18:07:10.003Z,17.70
2019-04-07T18:10:02.705Z,17.60
2019-04-07T18:13:07.427Z,17.50
2019-04-07T18:15:49.809Z,17.40
2019-04-07T18:18:48.624Z,17.20
2019-04-07T18:21:30.208Z,17.10
2019-04-07T18:24:20.571Z,16.90
2019-04-07T18:27:03.160Z,16.70
2019-04-07T18:29:44.880Z,16.60
2019-04-07T18:32:26.414Z,16.50
2019-04-07T18:35:04.472Z,16.30
2019-04-07T18:37:54.006Z,16.10
2019-04-07T18:40:35.254Z,16.00
2019-04-07T18:43:22.681Z,15.90
2019-04-07T18:46:11.884Z,15.90
2019-04-07T18:49:03.187Z,15.80
2019-04-07T18:51:49.297Z,15.70
2019-04-07T18:54:46.478Z,15.60
2019-04-07T18:57:42.629Z,15.50
2019-04-07T19:00:44.037Z,15.40
2019-04-07T19:03:33.787Z,15.30
2019-04-07T19:06:18.078Z,15.20
2019-04-07T19:08:58.920Z,15.20
2019-04-07T19:11:47.236Z,15.10
2019-04-07T19:14:40.162Z,15.00
2019-04-07T19:17:38.531Z,15.00
2019-04-07T19:20:26.224Z,15.00
2019-04-07T19:23:28.439Z,14.90
2019-04-07T19:26:29.001Z,14.90
2019-04-07T19:29:10.328Z,14.90
2019-04-07T19:32:05.969Z,14.80
2019-04-07T19:35:13.199Z,14.70
2019-04-07T19:38:16.796Z,14.60
2019-04-07T19:41:11.119Z,14.40
2019-04-07T19:43:52.786Z,14.30
2019-04-07T19:46:34.527Z,14.20
2019-04-07T19:49:24.064Z,14.20
2019-04-07T19:52:16.250Z,14.10
2019-04-07T19:55:05.849Z,14.00
2019-04-07T19:58:07.650Z,13.90
2019-04-07T20:00:58.945Z,13.90
2019-04-07T20:03:53.982Z,13.90
2019-04-07T20:06:48.668Z,14.00
2019-04-07T20:09:48.335Z,13.80
2019-04-07T20:12:47.469Z,13.70
2019-04-07T20:15:36.489Z,13.60
2019-04-07T20:18:30.097Z,13.60
2019-04-07T20:21:19.603Z,13.50
2019-04-07T20:28:17.462Z,13.30
2019-04-07T20:31:12.662Z,13.30
2019-04-07T20:33:51.253Z,13.20
2019-04-07T20:36:40.151Z,13.20
2019-04-07T20:39:36.420Z,13.20
2019-04-07T20:42:34.703Z,13.10
2019-04-07T20:45:18.455Z,13.10
2019-04-07T20:48:02.977Z,13.10
2019-04-07T20:50:50.248Z,13.10
2019-04-07T20:53:39.426Z,13.10
2019-04-07T20:56:36.171Z,13.00
2019-04-07T20:59:13.932Z,13.00
2019-04-07T21:02:19.170Z,13.00
2019-04-07T21:05:15.600Z,12.90
2019-04-07T21:07:59.532Z,12.80
2019-04-07T21:10:56.041Z,12.60
2019-04-07T21:13:54.564Z,12.60
2019-04-07T21:16:47.178Z,12.50
2019-04-07T21:19:37.130Z,12.40
2019-04-07T21:22:15.304Z,12.40
2019-04-07T21:25:19.515Z,12.40
2019-04-07T21:28:20.855Z,12.30
2019-04-07T21:31:20.099Z,12.30
2019-04-07T21:34:08.777Z,12.30
2019-04-07T21:37:00.915Z,12.20
2019-04-07T21:39:55.773Z,12.10
2019-04-07T21:42:54.750Z,12.10
2019-04-07T21:45:50.396Z,12.10
2019-04-07T21:48:37.095Z,12.00
2019-04-07T21:51:46.509Z,11.90
2019-04-07T21:54:40.826Z,11.90
2019-04-07T21:57:19.993Z,11.90
2019-04-07T22:00:12.517Z,11.80
2019-04-07T22:03:08.733Z,11.80
2019-04-07T22:05:46.639Z,11.80
2019-04-07T22:08:28.513Z,11.70
2019-04-07T22:10:58.339Z,11.60
2019-04-07T22:13:28.707Z,11.60
2019-04-07T22:16:02.663Z,11.60
2019-04-07T22:18:30.479Z,11.60
2019-04-07T22:21:01.226Z,11.50
2019-04-07T22:23:31.801Z,11.50
2019-04-07T22:26:02.664Z,11.50
2019-04-07T22:28:33.283Z,11.40
2019-04-07T22:31:03.627Z,11.50
2019-04-07T22:33:34.139Z,11.40
2019-04-07T22:36:05.859Z,11.40
2019-04-07T22:38:35.896Z,11.40
2019-04-07T22:41:07.334Z,11.30
2019-04-07T22:43:37.280Z,11.20
2019-04-07T22:46:16.685Z,11.10
2019-04-07T22:48:38.765Z,11.10
2019-04-07T22:51:12.122Z,11.00
2019-04-07T22:53:40.101Z,11.00
2019-04-07T22:56:09.964Z,11.00
2019-04-07T22:58:40.213Z,10.90
2019-04-07T23:01:11.117Z,10.90
2019-04-07T23:03:41.302Z,10.90
2019-04-07T23:06:11.217Z,10.90
2019-04-07T23:08:41.173Z,10.80
2019-04-07T23:11:11.962Z,10.80
2019-04-07T23:13:42.073Z,10.70
2019-04-07T23:16:15.129Z,10.70
2019-04-07T23:18:44.419Z,10.60
2019-04-07T23:21:14.987Z,10.60
2019-04-07T23:23:46.166Z,10.60
2019-04-07T23:26:16.288Z,10.50
2019-04-07T23:28:47.093Z,10.50
2019-04-07T23:31:17.664Z,10.40
2019-04-07T23:33:47.582Z,10.30
2019-04-07T23:36:17.953Z,10.20
2019-04-07T23:38:48.011Z,10.20
2019-04-07T23:41:18.089Z,10.20
2019-04-07T23:43:48.102Z,10.20
2019-04-07T23:46:23.190Z,10.10
2019-04-07T23:48:49.792Z,10.20
2019-04-07T23:51:20.646Z,10.20
2019-04-07T23:54:11.253Z,10.20
2019-04-07T23:56:43.716Z,10.20
2019-04-07T23:59:14.626Z,10.20
